South Franklin, Vermont
Current Conditions -  °F | °C
As of 4:15 PM on Sunday 23 Nov 2014 (Local Time) from KFSO Reporting Station
Overcast Overcast  
Wind Chill:   Ceiling: 4400
Heat Index:   Visibility: 10mi
Dew Point:   Wind: 5mph
Humidity: 87%   Direction: 170°S
Pressure: 30.03"   Gusts: NA
Location:  44.8764°N, 72.758°W
Report Text: KFSO 232115Z AUTO 17004KT 10SM SCT031 OVC044 06/04 A3003 RMK AO2 T00630042
Loading
Personal Weather Stations






























Interactive Weather Map New forecast layout! Learn more

10-Day Weather Forecast

Advertisements
Track Severe Weather on mobile